createdAt,value
2022-09-07T05:21:54.466Z,96862.34
2022-09-07T05:23:58.759Z,96867.22
2022-09-07T05:26:01.476Z,96869.41
2022-09-07T05:28:04.894Z,96875.84
2022-09-07T05:30:09.048Z,96877.44
2022-09-07T05:32:11.890Z,96877.44
2022-09-07T05:34:31.097Z,96889.84
2022-09-07T05:36:34.399Z,96879.56
2022-09-07T05:38:38.649Z,96881.72
2022-09-07T05:40:41.878Z,96885.53
2022-09-07T05:42:44.693Z,96881.47
2022-09-07T05:44:47.529Z,96884.44
2022-09-07T05:46:50.364Z,96879.28
2022-09-07T05:48:53.104Z,96875.22
2022-09-07T05:50:55.868Z,96881.69
2022-09-07T05:52:59.791Z,96885.16
2022-09-07T05:55:28.195Z,96883.53
2022-09-07T05:57:27.151Z,96880.28
2022-09-07T05:59:29.924Z,96873.00
2022-09-07T06:01:32.714Z,96872.94
2022-09-07T06:03:36.783Z,96877.81
2022-09-07T06:05:39.591Z,96877.25
2022-09-07T06:07:42.604Z,96883.75
2022-09-07T06:12:09.650Z,96890.75
2022-09-07T06:14:12.617Z,96898.31
2022-09-07T06:16:16.588Z,96889.09
2022-09-07T06:18:19.410Z,96885.88
2022-09-07T06:20:22.386Z,96885.06
2022-09-07T06:22:28.848Z,96883.19
2022-09-07T06:24:33.542Z,96885.06
2022-09-07T06:26:36.414Z,96888.31
2022-09-07T06:28:42.378Z,96888.03
2022-09-07T06:30:45.294Z,96879.66
2022-09-07T06:32:49.133Z,96885.03
2022-09-07T06:34:52.220Z,96887.44
2022-09-07T06:36:55.524Z,96893.94
2022-09-07T06:39:01.469Z,96894.75
2022-09-07T06:43:31.839Z,96897.69
2022-09-07T06:45:36.324Z,96899.03
2022-09-07T06:47:39.438Z,96894.97
2022-09-07T06:49:42.356Z,96898.47
2022-09-07T06:51:45.347Z,96892.28
2022-09-07T06:53:50.341Z,96893.09
2022-09-07T06:55:53.920Z,96890.38
2022-09-07T06:57:57.202Z,96886.59
2022-09-07T07:00:00.066Z,96893.63
2022-09-07T07:02:05.154Z,96887.94
2022-09-07T07:04:08.372Z,96885.78
2022-09-07T07:06:12.570Z,96880.59
2022-09-07T07:08:15.917Z,96878.72
2022-09-07T07:10:24.552Z,96880.88
2022-09-07T07:14:34.692Z,96889.97
2022-09-07T07:16:40.049Z,96884.56
2022-09-07T07:18:45.342Z,96886.94
2022-09-07T07:20:48.157Z,96892.84
2022-09-07T07:22:53.077Z,96892.53
2022-09-07T07:24:56.612Z,96884.13
2022-09-07T07:26:59.767Z,96887.06
2022-09-07T07:29:03.667Z,96888.69
2022-09-07T07:31:12.037Z,96879.19
2022-09-07T07:33:16.135Z,96883.78
2022-09-07T07:35:20.390Z,96883.50
2022-09-07T07:37:27.800Z,96883.47
2022-09-07T07:41:57.660Z,96888.03
2022-09-07T07:44:04.237Z,96876.66
2022-09-07T07:46:08.297Z,96876.88
2022-09-07T07:48:13.962Z,96877.13
2022-09-07T07:50:32.965Z,96881.16
2022-09-07T07:55:42.933Z,96873.78
2022-09-07T07:57:26.450Z,96866.75
2022-09-07T07:59:29.608Z,96860.22
2022-09-07T08:01:35.287Z,96860.75
2022-09-07T08:03:40.998Z,96849.94
2022-09-07T08:05:43.912Z,96850.50
2022-09-07T08:07:50.352Z,96856.44
2022-09-07T08:09:54.717Z,96858.34
2022-09-07T08:11:57.996Z,96859.94
2022-09-07T08:14:02.177Z,96850.50
2022-09-07T08:16:07.024Z,96848.34
2022-09-07T08:18:09.844Z,96850.22
2022-09-07T08:20:13.263Z,96844.81
2022-09-07T08:22:16.652Z,96839.69
2022-09-07T08:24:21.828Z,96845.38
2022-09-07T08:26:25.893Z,96835.91
2022-09-07T08:28:30.095Z,96835.91
2022-09-07T08:30:35.609Z,96840.22
2022-09-07T08:32:38.435Z,96842.69
2022-09-07T08:34:41.197Z,96841.00
2022-09-07T08:36:44.090Z,96848.81
2022-09-07T08:38:50.580Z,96832.59
2022-09-07T08:40:55.821Z,96839.09
2022-09-07T08:43:07.772Z,96836.91
2022-09-07T08:45:15.867Z,96837.44
2022-09-07T08:47:29.545Z,96832.81
2022-09-07T08:49:45.367Z,96829.03
2022-09-07T08:51:54.578Z,96836.34
2022-09-07T08:53:57.545Z,96837.97
2022-09-07T08:56:06.639Z,96846.09
2022-09-07T08:58:32.684Z,96839.28
2022-09-07T09:00:40.151Z,96832.50
2022-09-07T09:02:44.522Z,96839.00
2022-09-07T09:07:20.716Z,96831.00
2022-09-07T09:09:34.787Z,96832.84
2022-09-07T09:11:51.116Z,96836.00
2022-09-07T09:14:01.820Z,96828.13
2022-09-07T09:16:11.507Z,96824.06
2022-09-07T09:18:29.039Z,96824.06
2022-09-07T09:20:38.141Z,96825.59
2022-09-07T09:22:41.043Z,96821.22
2022-09-07T09:24:48.370Z,96813.63
2022-09-07T09:26:57.615Z,96815.22
2022-09-07T09:29:13.700Z,96810.31
2022-09-07T09:31:23.940Z,96808.13
2022-09-07T09:33:29.121Z,96813.53
2022-09-07T09:35:35.387Z,96813.78
2022-09-07T09:37:40.205Z,96811.06
2022-09-07T09:39:48.172Z,96812.69
2022-09-07T09:41:57.056Z,96811.88
2022-09-07T09:43:59.795Z,96803.75
2022-09-07T09:46:18.634Z,96799.94
2022-09-07T09:48:28.195Z,96795.34
2022-09-07T09:53:01.682Z,96789.84
2022-09-07T09:55:30.680Z,96783.03
2022-09-07T10:00:27.983Z,96778.94
2022-09-07T10:04:58.315Z,96771.63
2022-09-07T10:07:08.762Z,96762.97
2022-09-07T10:09:19.846Z,96770.22
2022-09-07T10:14:06.456Z,96760.41
2022-09-07T10:16:11.790Z,96768.25
2022-09-07T10:18:22.194Z,96756.03
2022-09-07T10:20:34.214Z,96760.03
2022-09-07T10:22:38.522Z,96758.06
2022-09-07T10:24:41.453Z,96751.03
2022-09-07T10:26:45.034Z,96753.22
2022-09-07T10:31:19.840Z,96757.50
2022-09-07T10:33:28.640Z,96746.34
2022-09-07T10:35:35.311Z,96752.28
2022-09-07T10:37:50.788Z,96752.47
2022-09-07T10:40:05.139Z,96747.31
2022-09-07T10:42:28.063Z,96745.13
2022-09-07T10:44:47.216Z,96748.94
2022-09-07T10:46:58.262Z,96750.03
2022-09-07T10:49:13.562Z,96748.03
2022-09-07T10:51:23.092Z,96742.31
2022-09-07T10:53:41.470Z,96736.88
2022-09-07T10:55:59.680Z,96737.19
2022-09-07T10:58:14.456Z,96737.19
2022-09-07T11:00:19.087Z,96736.69
2022-09-07T11:02:31.493Z,96738.09
2022-09-07T11:04:53.767Z,96731.56
2022-09-07T11:07:05.122Z,96726.94
2022-09-07T11:09:30.176Z,96732.06
2022-09-07T11:14:13.571Z,96729.88
2022-09-07T11:19:34.351Z,96711.41
2022-09-07T11:21:56.156Z,96705.38
2022-09-07T11:23:46.047Z,96704.28
2022-09-07T11:25:58.510Z,96704.28
2022-09-07T11:28:06.184Z,96702.38
2022-09-07T11:30:19.667Z,96692.34
2022-09-07T11:32:26.241Z,96690.13
2022-09-07T11:34:34.685Z,96692.53
2022-09-07T11:36:42.235Z,96680.78
2022-09-07T11:38:51.183Z,96671.06
2022-09-07T11:41:07.449Z,96666.75
2022-09-07T11:43:19.978Z,96667.53
2022-09-07T11:45:29.494Z,96658.59
2022-09-07T11:47:39.340Z,96654.28
2022-09-07T11:49:47.673Z,96651.38
2022-09-07T11:51:57.654Z,96640.84
2022-09-07T11:54:06.283Z,96644.06
2022-09-07T11:56:19.223Z,96637.41
2022-09-07T11:58:51.390Z,96637.94
2022-09-07T12:01:02.637Z,96631.72
2022-09-07T12:03:32.511Z,96629.28
2022-09-07T12:06:00.449Z,96622.47
2022-09-07T12:08:35.298Z,96616.44
2022-09-07T12:10:58.846Z,96613.44
2022-09-07T12:13:15.973Z,96611.22
2022-09-07T12:15:28.709Z,96605.50
2022-09-07T12:17:46.710Z,96602.22
2022-09-07T12:20:11.151Z,96602.22
2022-09-07T12:22:23.370Z,96601.91
2022-09-07T12:24:48.328Z,96597.78
2022-09-07T12:26:52.605Z,96593.97
2022-09-07T12:29:07.675Z,96594.44
2022-09-07T12:31:16.637Z,96577.88
2022-09-07T12:33:33.605Z,96578.69
2022-09-07T12:35:39.837Z,96577.06
2022-09-07T12:37:44.695Z,96583.91
2022-09-07T12:39:47.732Z,96579.59
2022-09-07T12:44:26.113Z,96585.50
2022-09-07T12:46:49.928Z,96587.13
2022-09-07T12:49:04.643Z,96592.53
2022-09-07T12:51:16.288Z,96595.75
2022-09-07T12:53:33.248Z,96603.31
2022-09-07T12:58:28.266Z,96583.53
2022-09-07T13:00:40.533Z,96577.78
2022-09-07T13:05:52.737Z,96575.25
2022-09-07T13:08:21.553Z,96582.59
2022-09-07T13:10:32.555Z,96576.69
2022-09-07T13:12:56.824Z,96577.47
2022-09-07T13:15:01.277Z,96560.41
2022-09-07T13:17:43.011Z,96550.34
2022-09-07T13:20:06.693Z,96548.75
2022-09-07T13:23:08.917Z,96554.50
2022-09-07T13:25:45.724Z,96554.50
2022-09-07T13:27:55.652Z,96554.50
2022-09-07T13:30:03.027Z,96553.38
2022-09-07T13:32:11.487Z,96549.06
2022-09-07T13:34:49.645Z,96549.56
2022-09-07T13:36:52.565Z,96553.25
2022-09-07T13:38:56.367Z,96556.47
2022-09-07T13:41:07.332Z,96549.44
2022-09-07T13:43:17.739Z,96554.56
2022-09-07T13:45:33.212Z,96558.91
2022-09-07T13:47:49.626Z,96558.91
2022-09-07T13:50:03.205Z,96556.47
2022-09-07T13:52:14.622Z,96552.16
2022-09-07T13:54:24.575Z,96546.72
2022-09-07T13:56:39.037Z,96552.44
2022-09-07T13:58:45.057Z,96548.94
2022-09-07T14:00:55.449Z,96548.94
2022-09-07T14:03:02.323Z,96551.34
2022-09-07T14:05:07.198Z,96549.97
2022-09-07T14:07:15.604Z,96540.72
2022-09-07T14:09:21.761Z,96530.66
2022-09-07T14:11:27.108Z,96520.63
2022-09-07T14:13:29.876Z,96514.38
2022-09-07T14:15:39.264Z,96508.16
2022-09-07T14:17:41.988Z,96509.75
2022-09-07T14:19:46.471Z,96500.81
2022-09-07T14:22:00.969Z,96497.31
2022-09-07T14:24:06.410Z,96501.63
2022-09-07T14:26:17.214Z,96500.03
2022-09-07T14:28:31.504Z,96497.31
2022-09-07T14:30:36.469Z,96498.91
2022-09-07T14:32:39.736Z,96509.44
2022-09-07T14:34:43.381Z,96501.00
2022-09-07T14:36:47.659Z,96502.63
2022-09-07T14:39:06.251Z,96498.81
2022-09-07T14:41:13.922Z,96499.31
2022-09-07T14:43:33.387Z,96484.94
2022-09-07T14:45:40.064Z,96482.53
2022-09-07T14:50:05.879Z,96464.13
2022-09-07T14:52:08.815Z,96459.03
2022-09-07T14:54:20.860Z,96452.59
2022-09-07T14:56:25.462Z,96454.50
2022-09-07T14:58:32.295Z,96457.72
2022-09-07T15:00:37.290Z,96456.91
2022-09-07T15:02:40.027Z,96462.63
2022-09-07T15:04:42.812Z,96473.00
2022-09-07T15:07:02.235Z,96477.31
2022-09-07T15:09:07.251Z,96478.91
2022-09-07T15:13:37.149Z,96472.00
2022-09-07T15:15:46.749Z,96488.91
2022-09-07T15:17:49.790Z,96500.03
2022-09-07T15:19:52.691Z,96494.91
2022-09-07T15:21:56.070Z,96492.81
2022-09-07T15:24:00.223Z,96476.06
2022-09-07T15:26:03.441Z,96474.75
2022-09-07T15:28:08.473Z,96482.38
2022-09-07T15:30:12.385Z,96485.38
2022-09-07T15:32:18.193Z,96487.59
2022-09-07T15:34:21.662Z,96500.38
2022-09-07T15:36:24.438Z,96500.38
2022-09-07T15:41:20.810Z,96492.53
2022-09-07T15:43:21.597Z,96485.50
2022-09-07T15:45:25.730Z,96479.28
2022-09-07T15:47:50.839Z,96488.53
2022-09-07T15:49:53.953Z,96486.41
2022-09-07T15:52:05.132Z,96492.13
2022-09-07T15:54:12.661Z,96492.75
2022-09-07T15:56:17.270Z,96493.34
2022-09-07T15:58:22.937Z,96493.94
2022-09-07T16:00:25.754Z,96504.78
2022-09-07T16:04:52.652Z,96508.59
2022-09-07T16:06:55.737Z,96496.66
2022-09-07T16:08:58.470Z,96496.38
2022-09-07T16:11:14.706Z,96491.22
2022-09-07T16:13:23.882Z,96492.34
2022-09-07T16:15:27.082Z,96494.56
2022-09-07T16:17:36.538Z,96482.91
2022-09-07T16:19:41.445Z,96475.56
2022-09-07T16:21:44.262Z,96481.81
2022-09-07T16:23:49.301Z,96480.69
2022-09-07T16:25:57.307Z,96492.34
2022-09-07T16:28:00.101Z,96486.41
2022-09-07T16:30:02.923Z,96485.31
2022-09-07T16:34:30.015Z,96474.47
2022-09-07T16:36:32.897Z,96472.88
2022-09-07T16:38:44.054Z,96472.06
2022-09-07T16:40:47.318Z,96482.09
2022-09-07T16:42:51.577Z,96477.78
2022-09-07T16:46:02.732Z,96475.09
2022-09-07T16:47:18.299Z,96467.75
2022-09-07T16:49:21.002Z,96470.28
2022-09-07T16:51:25.850Z,96470.59
2022-09-07T16:53:28.772Z,96472.50
2022-09-07T16:55:31.514Z,96476.00
2022-09-07T16:58:35.403Z,96475.19
2022-09-07T16:59:56.819Z,96477.91
2022-09-07T17:01:59.699Z,96482.22
2022-09-07T17:04:08.011Z,96478.72
2022-09-07T17:06:15.016Z,96468.19
2022-09-07T17:08:19.082Z,96466.03
2022-09-07T17:10:21.772Z,96449.25
2022-09-07T17:12:25.767Z,96456.91
2022-09-07T17:14:29.063Z,96450.38
2022-09-07T17:16:33.979Z,96446.56
2022-09-07T17:21:01.000Z,96432.50
2022-09-07T17:23:03.610Z,96429.00
2022-09-07T17:25:09.090Z,96417.97
2022-09-07T17:27:13.313Z,96413.63
2022-09-07T17:29:16.667Z,96394.47
2022-09-07T17:33:43.796Z,96395.59
2022-09-07T17:35:46.472Z,96401.31
2022-09-07T17:37:49.178Z,96398.59
2022-09-07T17:39:51.837Z,96389.97
2022-09-07T17:41:56.314Z,96385.16
2022-09-07T17:44:00.084Z,96387.84
2022-09-07T17:46:04.204Z,96395.97
2022-09-07T17:48:06.936Z,96388.47
2022-09-07T17:50:09.801Z,96383.66
2022-09-07T17:52:12.490Z,96381.56
2022-09-07T17:54:17.570Z,96375.63
2022-09-07T17:56:20.834Z,96383.25
2022-09-07T17:58:25.227Z,96381.97
2022-09-07T18:00:27.888Z,96374.13
2022-09-07T18:02:30.600Z,96370.63
2022-09-07T18:04:35.630Z,96374.94
2022-09-07T18:06:40.204Z,96359.78
2022-09-07T18:08:42.971Z,96359.50
2022-09-07T18:13:08.364Z,96358.50
2022-09-07T18:15:12.788Z,96366.09
2022-09-07T18:17:15.561Z,96348.84
2022-09-07T18:19:18.617Z,96357.59
2022-09-07T18:21:23.473Z,96350.28
2022-09-07T18:23:26.156Z,96352.19
2022-09-07T18:25:29.138Z,96345.16
2022-09-07T18:27:32.120Z,96347.66
2022-09-07T18:29:34.995Z,96350.09
2022-09-07T18:31:41.549Z,96354.09
2022-09-07T18:33:44.310Z,96349.16
2022-09-07T18:35:47.480Z,96343.75
2022-09-07T18:37:50.831Z,96336.44
2022-09-07T18:39:54.510Z,96324.78
2022-09-07T18:41:57.983Z,96321.78
2022-09-07T18:44:01.356Z,96321.47
2022-09-07T18:46:06.539Z,96299.50
2022-09-07T18:48:12.605Z,96284.66
2022-09-07T18:50:15.387Z,96286.09
2022-09-07T18:54:41.735Z,96286.47
2022-09-07T18:56:45.042Z,96320.09
2022-09-07T18:58:47.785Z,96355.50
2022-09-07T19:00:54.713Z,96409.03
2022-09-07T19:02:57.470Z,96483.25
2022-09-07T19:07:39.274Z,96477.19
2022-09-07T19:09:42.535Z,96508.66
2022-09-07T19:11:45.386Z,96486.16
2022-09-07T19:13:48.199Z,96480.13
2022-09-07T19:15:50.843Z,96477.44
2022-09-07T19:17:53.563Z,96484.69
2022-09-07T19:19:56.325Z,96467.50
2022-09-07T19:22:02.361Z,96494.84
2022-09-07T19:24:06.992Z,96509.00
2022-09-07T19:26:09.867Z,96481.28
2022-09-07T19:28:12.627Z,96463.13
2022-09-07T19:30:19.449Z,96461.91
2022-09-07T19:32:22.224Z,96455.91
2022-09-07T19:34:24.958Z,96479.69
2022-09-07T19:36:28.908Z,96467.38
2022-09-07T19:38:33.349Z,96469.06
2022-09-07T19:42:39.229Z,96462.06
2022-09-07T19:44:41.857Z,96453.91
2022-09-07T19:46:45.212Z,96459.91
2022-09-07T19:48:48.034Z,96456.75
2022-09-07T19:50:50.907Z,96459.69
2022-09-07T19:52:54.811Z,96461.81
2022-09-07T19:55:05.517Z,96458.28
2022-09-07T19:57:08.672Z,96461.19
2022-09-07T19:59:15.026Z,96451.91
2022-09-07T20:01:20.267Z,96440.78
2022-09-07T20:03:23.036Z,96436.47
2022-09-07T20:05:31.097Z,96441.22
2022-09-07T20:07:33.860Z,96444.16
2022-09-07T20:09:36.908Z,96448.13
2022-09-07T20:11:46.086Z,96441.88
2022-09-07T20:13:49.630Z,96435.13
